sensor_id;sensor_type;location;lat;lon;timestamp;temperature;humidity
67364;HTU21D;54250;45.572;38.086;2024-02-23T00:01:17;-1.52;90.30
67364;HTU21D;54250;45.572;38.086;2024-02-23T00:03:43;-1.53;90.24
67364;HTU21D;54250;45.572;38.086;2024-02-23T00:06:09;-1.52;90.23
67364;HTU21D;54250;45.572;38.086;2024-02-23T00:08:35;-1.54;90.17
67364;HTU21D;54250;45.572;38.086;2024-02-23T00:11:01;-1.58;90.24
67364;HTU21D;54250;45.572;38.086;2024-02-23T00:13:27;-1.59;90.56
67364;HTU21D;54250;45.572;38.086;2024-02-23T00:15:53;-1.57;90.51
67364;HTU21D;54250;45.572;38.086;2024-02-23T00:18:19;-1.59;90.81
67364;HTU21D;54250;45.572;38.086;2024-02-23T00:20:46;-1.57;90.69
67364;HTU21D;54250;45.572;38.086;2024-02-23T00:23:13;-1.58;90.69
67364;HTU21D;54250;45.572;38.086;2024-02-23T00:25:38;-1.57;90.76
67364;HTU21D;54250;45.572;38.086;2024-02-23T00:28:05;-1.55;90.58
67364;HTU21D;54250;45.572;38.086;2024-02-23T00:30:31;-1.56;90.50
67364;HTU21D;54250;45.572;38.086;2024-02-23T00:32:57;-1.59;90.60
67364;HTU21D;54250;45.572;38.086;2024-02-23T00:35:23;-1.62;90.63
67364;HTU21D;54250;45.572;38.086;2024-02-23T00:37:49;-1.64;90.55
67364;HTU21D;54250;45.572;38.086;2024-02-23T00:40:15;-1.69;90.58
67364;HTU21D;54250;45.572;38.086;2024-02-23T00:42:41;-1.68;90.68
67364;HTU21D;54250;45.572;38.086;2024-02-23T00:45:07;-1.68;90.74
67364;HTU21D;54250;45.572;38.086;2024-02-23T00:47:34;-1.70;90.69
67364;HTU21D;54250;45.572;38.086;2024-02-23T00:50:01;-1.72;90.78
67364;HTU21D;54250;45.572;38.086;2024-02-23T00:52:27;-1.77;90.76
67364;HTU21D;54250;45.572;38.086;2024-02-23T00:54:53;-1.83;90.92
67364;HTU21D;54250;45.572;38.086;2024-02-23T00:57:19;-1.83;91.02
67364;HTU21D;54250;45.572;38.086;2024-02-23T00:59:51;-1.89;91.24
67364;HTU21D;54250;45.572;38.086;2024-02-23T01:02:17;-1.91;91.26
67364;HTU21D;54250;45.572;38.086;2024-02-23T01:04:43;-1.93;91.47
67364;HTU21D;54250;45.572;38.086;2024-02-23T01:07:09;-1.95;91.51
67364;HTU21D;54250;45.572;38.086;2024-02-23T01:09:36;-2.03;91.57
67364;HTU21D;54250;45.572;38.086;2024-02-23T01:12:02;-2.00;91.63
67364;HTU21D;54250;45.572;38.086;2024-02-23T01:14:27;-2.03;91.71
67364;HTU21D;54250;45.572;38.086;2024-02-23T01:16:53;-2.07;91.78
67364;HTU21D;54250;45.572;38.086;2024-02-23T01:19:19;-2.06;91.87
67364;HTU21D;54250;45.572;38.086;2024-02-23T01:21:45;-2.07;91.71
67364;HTU21D;54250;45.572;38.086;2024-02-23T01:24:11;-2.04;91.89
67364;HTU21D;54250;45.572;38.086;2024-02-23T01:26:37;-2.04;91.82
67364;HTU21D;54250;45.572;38.086;2024-02-23T01:29:03;-2.06;91.89
67364;HTU21D;54250;45.572;38.086;2024-02-23T01:31:29;-2.03;91.92
67364;HTU21D;54250;45.572;38.086;2024-02-23T01:33:55;-2.03;91.98
67364;HTU21D;54250;45.572;38.086;2024-02-23T01:36:21;-2.00;92.21
67364;HTU21D;54250;45.572;38.086;2024-02-23T01:38:47;-2.00;92.30
67364;HTU21D;54250;45.572;38.086;2024-02-23T01:41:13;-1.98;92.61
67364;HTU21D;54250;45.572;38.086;2024-02-23T01:43:39;-1.94;92.64
67364;HTU21D;54250;45.572;38.086;2024-02-23T01:46:05;-1.93;92.74
67364;HTU21D;54250;45.572;38.086;2024-02-23T01:48:32;-1.92;92.92
67364;HTU21D;54250;45.572;38.086;2024-02-23T01:50:58;-1.92;93.00
67364;HTU21D;54250;45.572;38.086;2024-02-23T01:53:25;-1.89;92.96
67364;HTU21D;54250;45.572;38.086;2024-02-23T01:55:56;-1.88;92.82
67364;HTU21D;54250;45.572;38.086;2024-02-23T01:58:22;-1.91;92.79
67364;HTU21D;54250;45.572;38.086;2024-02-23T02:00:48;-1.92;92.73
67364;HTU21D;54250;45.572;38.086;2024-02-23T02:03:14;-1.95;92.87
67364;HTU21D;54250;45.572;38.086;2024-02-23T02:05:40;-1.91;92.95
67364;HTU21D;54250;45.572;38.086;2024-02-23T02:08:07;-1.91;92.89
67364;HTU21D;54250;45.572;38.086;2024-02-23T02:10:36;-1.91;92.88
67364;HTU21D;54250;45.572;38.086;2024-02-23T02:13:03;-1.95;92.79
67364;HTU21D;54250;45.572;38.086;2024-02-23T02:15:30;-1.98;92.98
67364;HTU21D;54250;45.572;38.086;2024-02-23T02:17:56;-2.01;92.85
67364;HTU21D;54250;45.572;38.086;2024-02-23T02:20:24;-2.02;92.92
67364;HTU21D;54250;45.572;38.086;2024-02-23T02:22:51;-2.06;93.08
67364;HTU21D;54250;45.572;38.086;2024-02-23T02:25:17;-2.04;93.10
67364;HTU21D;54250;45.572;38.086;2024-02-23T02:27:43;-2.05;92.98
67364;HTU21D;54250;45.572;38.086;2024-02-23T02:30:12;-2.08;92.94
67364;HTU21D;54250;45.572;38.086;2024-02-23T02:32:39;-2.09;92.86
67364;HTU21D;54250;45.572;38.086;2024-02-23T02:35:05;-2.07;93.02
67364;HTU21D;54250;45.572;38.086;2024-02-23T02:37:31;-2.04;93.04
67364;HTU21D;54250;45.572;38.086;2024-02-23T02:39:57;-2.03;93.05
67364;HTU21D;54250;45.572;38.086;2024-02-23T02:42:23;-1.99;93.11
67364;HTU21D;54250;45.572;38.086;2024-02-23T02:44:49;-1.99;93.19
67364;HTU21D;54250;45.572;38.086;2024-02-23T02:47:15;-2.00;93.25
67364;HTU21D;54250;45.572;38.086;2024-02-23T02:49:41;-2.01;93.24
67364;HTU21D;54250;45.572;38.086;2024-02-23T02:52:07;-2.03;93.40
67364;HTU21D;54250;45.572;38.086;2024-02-23T02:54:34;-2.01;93.62
67364;HTU21D;54250;45.572;38.086;2024-02-23T02:57:00;-1.98;93.50
67364;HTU21D;54250;45.572;38.086;2024-02-23T02:59:26;-1.99;93.52
67364;HTU21D;54250;45.572;38.086;2024-02-23T03:01:52;-2.04;93.72
67364;HTU21D;54250;45.572;38.086;2024-02-23T03:04:18;-1.99;93.93
67364;HTU21D;54250;45.572;38.086;2024-02-23T03:06:44;-2.00;93.89
67364;HTU21D;54250;45.572;38.086;2024-02-23T03:09:10;-2.04;93.73
67364;HTU21D;54250;45.572;38.086;2024-02-23T03:11:36;-2.05;93.73
67364;HTU21D;54250;45.572;38.086;2024-02-23T03:14:02;-2.06;93.78
67364;HTU21D;54250;45.572;38.086;2024-02-23T03:16:28;-2.05;93.86
67364;HTU21D;54250;45.572;38.086;2024-02-23T03:18:56;-2.00;94.04
67364;HTU21D;54250;45.572;38.086;2024-02-23T03:21:22;-1.98;93.98
67364;HTU21D;54250;45.572;38.086;2024-02-23T03:23:48;-1.93;94.04
67364;HTU21D;54250;45.572;38.086;2024-02-23T03:26:14;-1.95;94.01
67364;HTU21D;54250;45.572;38.086;2024-02-23T03:28:42;-1.97;93.95
67364;HTU21D;54250;45.572;38.086;2024-02-23T03:31:09;-1.97;93.86
67364;HTU21D;54250;45.572;38.086;2024-02-23T03:33:34;-1.99;93.82
67364;HTU21D;54250;45.572;38.086;2024-02-23T03:36:00;-1.98;93.86
67364;HTU21D;54250;45.572;38.086;2024-02-23T03:38:26;-1.94;93.83
67364;HTU21D;54250;45.572;38.086;2024-02-23T03:40:54;-1.89;93.73
67364;HTU21D;54250;45.572;38.086;2024-02-23T03:43:20;-1.83;93.47
67364;HTU21D;54250;45.572;38.086;2024-02-23T03:45:46;-1.73;93.30
67364;HTU21D;54250;45.572;38.086;2024-02-23T03:48:12;-1.61;93.16
67364;HTU21D;54250;45.572;38.086;2024-02-23T03:50:38;-1.48;92.89
67364;HTU21D;54250;45.572;38.086;2024-02-23T03:53:04;-1.38;92.69
67364;HTU21D;54250;45.572;38.086;2024-02-23T03:55:31;-1.29;92.59
67364;HTU21D;54250;45.572;38.086;2024-02-23T03:57:57;-1.21;92.45
67364;HTU21D;54250;45.572;38.086;2024-02-23T04:00:23;-1.15;92.35
67364;HTU21D;54250;45.572;38.086;2024-02-23T04:02:49;-1.09;92.41
67364;HTU21D;54250;45.572;38.086;2024-02-23T04:05:15;-1.04;92.44
67364;HTU21D;54250;45.572;38.086;2024-02-23T04:07:41;-1.00;92.46
67364;HTU21D;54250;45.572;38.086;2024-02-23T04:10:07;-0.95;92.56
67364;HTU21D;54250;45.572;38.086;2024-02-23T04:12:33;-0.93;92.65
67364;HTU21D;54250;45.572;38.086;2024-02-23T04:14:59;-0.88;92.59
67364;HTU21D;54250;45.572;38.086;2024-02-23T04:17:25;-0.84;92.48
67364;HTU21D;54250;45.572;38.086;2024-02-23T04:19:51;-0.80;92.40
67364;HTU21D;54250;45.572;38.086;2024-02-23T04:22:17;-0.76;92.35
67364;HTU21D;54250;45.572;38.086;2024-02-23T04:24:43;-0.72;92.27
67364;HTU21D;54250;45.572;38.086;2024-02-23T04:27:09;-0.69;92.24
67364;HTU21D;54250;45.572;38.086;2024-02-23T04:29:35;-0.66;92.34
67364;HTU21D;54250;45.572;38.086;2024-02-23T04:32:01;-0.59;92.35
67364;HTU21D;54250;45.572;38.086;2024-02-23T04:34:28;-0.41;92.36
67364;HTU21D;54250;45.572;38.086;2024-02-23T04:36:54;-0.12;91.79
67364;HTU21D;54250;45.572;38.086;2024-02-23T04:39:21;0.04;91.34
67364;HTU21D;54250;45.572;38.086;2024-02-23T04:41:47;0.14;91.23
67364;HTU21D;54250;45.572;38.086;2024-02-23T04:44:13;0.34;90.92
67364;HTU21D;54250;45.572;38.086;2024-02-23T04:46:39;0.39;90.69
67364;HTU21D;54250;45.572;38.086;2024-02-23T04:49:05;0.36;90.80
67364;HTU21D;54250;45.572;38.086;2024-02-23T04:51:31;0.36;90.95
67364;HTU21D;54250;45.572;38.086;2024-02-23T04:53:57;0.33;90.85
67364;HTU21D;54250;45.572;38.086;2024-02-23T04:56:23;0.25;91.05
67364;HTU21D;54250;45.572;38.086;2024-02-23T04:58:49;0.22;91.09
67364;HTU21D;54250;45.572;38.086;2024-02-23T05:01:15;0.18;91.10
67364;HTU21D;54250;45.572;38.086;2024-02-23T05:03:41;0.16;91.17
67364;HTU21D;54250;45.572;38.086;2024-02-23T05:06:07;0.17;91.07
67364;HTU21D;54250;45.572;38.086;2024-02-23T05:08:33;0.16;90.99
67364;HTU21D;54250;45.572;38.086;2024-02-23T05:10:59;0.17;90.98
67364;HTU21D;54250;45.572;38.086;2024-02-23T05:13:25;0.18;90.94
67364;HTU21D;54250;45.572;38.086;2024-02-23T05:15:51;0.22;90.85
67364;HTU21D;54250;45.572;38.086;2024-02-23T05:18:19;0.24;90.73
67364;HTU21D;54250;45.572;38.086;2024-02-23T05:20:45;0.24;90.72
67364;HTU21D;54250;45.572;38.086;2024-02-23T05:23:11;0.27;90.67
67364;HTU21D;54250;45.572;38.086;2024-02-23T05:25:37;0.30;90.59
67364;HTU21D;54250;45.572;38.086;2024-02-23T05:28:04;0.31;90.53
67364;HTU21D;54250;45.572;38.086;2024-02-23T05:30:30;0.35;90.50
67364;HTU21D;54250;45.572;38.086;2024-02-23T05:32:57;0.36;90.48
67364;HTU21D;54250;45.572;38.086;2024-02-23T05:35:29;0.37;90.53
67364;HTU21D;54250;45.572;38.086;2024-02-23T05:37:55;0.40;90.53
67364;HTU21D;54250;45.572;38.086;2024-02-23T05:40:21;0.44;90.60
67364;HTU21D;54250;45.572;38.086;2024-02-23T05:42:47;0.46;90.69
67364;HTU21D;54250;45.572;38.086;2024-02-23T05:45:13;0.47;90.64
67364;HTU21D;54250;45.572;38.086;2024-02-23T05:47:39;0.51;90.54
67364;HTU21D;54250;45.572;38.086;2024-02-23T05:50:09;0.52;90.57
67364;HTU21D;54250;45.572;38.086;2024-02-23T05:52:35;0.55;90.52
67364;HTU21D;54250;45.572;38.086;2024-02-23T05:55:03;0.60;90.40
67364;HTU21D;54250;45.572;38.086;2024-02-23T05:57:31;0.66;90.32
67364;HTU21D;54250;45.572;38.086;2024-02-23T06:00:00;0.71;90.18
67364;HTU21D;54250;45.572;38.086;2024-02-23T06:02:26;0.72;90.21
67364;HTU21D;54250;45.572;38.086;2024-02-23T06:04:52;0.77;90.15
67364;HTU21D;54250;45.572;38.086;2024-02-23T06:07:18;0.87;89.99
67364;HTU21D;54250;45.572;38.086;2024-02-23T06:09:46;0.94;89.99
67364;HTU21D;54250;45.572;38.086;2024-02-23T06:12:12;0.99;89.95
67364;HTU21D;54250;45.572;38.086;2024-02-23T06:14:38;1.06;89.94
67364;HTU21D;54250;45.572;38.086;2024-02-23T06:17:05;1.08;89.94
67364;HTU21D;54250;45.572;38.086;2024-02-23T06:19:32;1.10;89.95
67364;HTU21D;54250;45.572;38.086;2024-02-23T06:21:58;1.19;89.94
67364;HTU21D;54250;45.572;38.086;2024-02-23T06:24:25;1.35;89.74
67364;HTU21D;54250;45.572;38.086;2024-02-23T06:26:51;1.47;89.42
67364;HTU21D;54250;45.572;38.086;2024-02-23T06:29:17;1.55;89.40
67364;HTU21D;54250;45.572;38.086;2024-02-23T06:31:43;1.73;89.25
67364;HTU21D;54250;45.572;38.086;2024-02-23T06:34:15;1.97;88.87
67364;HTU21D;54250;45.572;38.086;2024-02-23T06:36:41;2.11;88.64
67364;HTU21D;54250;45.572;38.086;2024-02-23T06:39:07;2.20;88.55
67364;HTU21D;54250;45.572;38.086;2024-02-23T06:41:34;2.31;88.62
67364;HTU21D;54250;45.572;38.086;2024-02-23T06:44:00;2.46;88.43
67364;HTU21D;54250;45.572;38.086;2024-02-23T06:46:26;2.65;88.25
67364;HTU21D;54250;45.572;38.086;2024-02-23T06:48:52;2.73;88.02
67364;HTU21D;54250;45.572;38.086;2024-02-23T06:51:18;2.74;87.96
67364;HTU21D;54250;45.572;38.086;2024-02-23T06:53:46;2.73;88.03
67364;HTU21D;54250;45.572;38.086;2024-02-23T06:56:12;2.71;87.87
67364;HTU21D;54250;45.572;38.086;2024-02-23T06:58:38;2.69;87.88
67364;HTU21D;54250;45.572;38.086;2024-02-23T07:01:05;2.71;87.87
67364;HTU21D;54250;45.572;38.086;2024-02-23T07:03:37;2.78;87.78
67364;HTU21D;54250;45.572;38.086;2024-02-23T07:06:04;2.95;87.59
67364;HTU21D;54250;45.572;38.086;2024-02-23T07:08:30;3.10;87.23
67364;HTU21D;54250;45.572;38.086;2024-02-23T07:10:56;3.25;87.01
67364;HTU21D;54250;45.572;38.086;2024-02-23T07:13:22;3.34;86.67
67364;HTU21D;54250;45.572;38.086;2024-02-23T07:15:48;3.41;86.65
67364;HTU21D;54250;45.572;38.086;2024-02-23T07:18:14;3.61;86.61
67364;HTU21D;54250;45.572;38.086;2024-02-23T07:20:41;3.80;86.20
67364;HTU21D;54250;45.572;38.086;2024-02-23T07:23:07;4.00;86.03
67364;HTU21D;54250;45.572;38.086;2024-02-23T07:25:34;4.18;85.74
67364;HTU21D;54250;45.572;38.086;2024-02-23T07:28:00;4.30;85.70
67364;HTU21D;54250;45.572;38.086;2024-02-23T07:30:27;4.51;85.42
67364;HTU21D;54250;45.572;38.086;2024-02-23T07:32:53;4.54;84.87
67364;HTU21D;54250;45.572;38.086;2024-02-23T07:35:20;4.78;84.83
67364;HTU21D;54250;45.572;38.086;2024-02-23T07:37:47;5.10;83.94
67364;HTU21D;54250;45.572;38.086;2024-02-23T07:40:14;5.54;83.29
67364;HTU21D;54250;45.572;38.086;2024-02-23T07:42:40;6.09;82.17
67364;HTU21D;54250;45.572;38.086;2024-02-23T07:45:07;6.89;80.83
67364;HTU21D;54250;45.572;38.086;2024-02-23T07:47:33;7.38;79.26
67364;HTU21D;54250;45.572;38.086;2024-02-23T07:50:00;7.57;78.24
67364;HTU21D;54250;45.572;38.086;2024-02-23T07:52:26;7.93;78.18
67364;HTU21D;54250;45.572;38.086;2024-02-23T07:54:56;8.18;77.42
67364;HTU21D;54250;45.572;38.086;2024-02-23T07:57:22;8.47;77.47
67364;HTU21D;54250;45.572;38.086;2024-02-23T07:59:48;9.04;76.87
67364;HTU21D;54250;45.572;38.086;2024-02-23T08:02:15;9.24;76.44
67364;HTU21D;54250;45.572;38.086;2024-02-23T08:04:41;9.41;76.96
67364;HTU21D;54250;45.572;38.086;2024-02-23T08:07:08;9.83;75.92
67364;HTU21D;54250;45.572;38.086;2024-02-23T08:09:34;9.85;75.51
67364;HTU21D;54250;45.572;38.086;2024-02-23T08:12:00;10.13;75.57
67364;HTU21D;54250;45.572;38.086;2024-02-23T08:14:26;11.10;73.83
67364;HTU21D;54250;45.572;38.086;2024-02-23T08:16:52;12.14;71.45
67364;HTU21D;54250;45.572;38.086;2024-02-23T08:19:18;13.69;68.01
67364;HTU21D;54250;45.572;38.086;2024-02-23T08:21:44;14.88;65.18
67364;HTU21D;54250;45.572;38.086;2024-02-23T08:24:10;15.75;64.60
67364;HTU21D;54250;45.572;38.086;2024-02-23T08:26:36;16.62;61.92
67364;HTU21D;54250;45.572;38.086;2024-02-23T08:29:04;17.08;60.30
67364;HTU21D;54250;45.572;38.086;2024-02-23T08:31:31;17.09;58.33
67364;HTU21D;54250;45.572;38.086;2024-02-23T08:33:57;16.70;57.76
67364;HTU21D;54250;45.572;38.086;2024-02-23T08:36:23;16.84;58.74
67364;HTU21D;54250;45.572;38.086;2024-02-23T08:38:49;17.68;57.46
67364;HTU21D;54250;45.572;38.086;2024-02-23T08:41:15;17.81;56.45
67364;HTU21D;54250;45.572;38.086;2024-02-23T08:43:41;17.99;55.95
67364;HTU21D;54250;45.572;38.086;2024-02-23T08:46:07;18.19;55.48
67364;HTU21D;54250;45.572;38.086;2024-02-23T08:48:33;18.88;54.97
67364;HTU21D;54250;45.572;38.086;2024-02-23T08:50:59;18.70;52.49
67364;HTU21D;54250;45.572;38.086;2024-02-23T08:53:25;18.08;53.50
67364;HTU21D;54250;45.572;38.086;2024-02-23T08:55:51;18.07;54.55
67364;HTU21D;54250;45.572;38.086;2024-02-23T08:58:17;18.38;52.65
67364;HTU21D;54250;45.572;38.086;2024-02-23T09:00:43;18.54;53.10
67364;HTU21D;54250;45.572;38.086;2024-02-23T09:03:09;18.79;53.33
67364;HTU21D;54250;45.572;38.086;2024-02-23T09:05:35;19.00;52.59
67364;HTU21D;54250;45.572;38.086;2024-02-23T09:08:01;18.82;51.89
67364;HTU21D;54250;45.572;38.086;2024-02-23T09:10:27;18.21;51.72
67364;HTU21D;54250;45.572;38.086;2024-02-23T09:12:53;18.15;51.24
67364;HTU21D;54250;45.572;38.086;2024-02-23T09:15:19;18.09;52.01
67364;HTU21D;54250;45.572;38.086;2024-02-23T09:17:45;18.54;50.98
67364;HTU21D;54250;45.572;38.086;2024-02-23T09:20:11;18.48;51.14
67364;HTU21D;54250;45.572;38.086;2024-02-23T09:22:37;18.35;51.02
67364;HTU21D;54250;45.572;38.086;2024-02-23T09:25:04;18.26;52.44
67364;HTU21D;54250;45.572;38.086;2024-02-23T09:27:31;18.72;51.83
67364;HTU21D;54250;45.572;38.086;2024-02-23T09:29:57;18.70;51.10
67364;HTU21D;54250;45.572;38.086;2024-02-23T09:32:24;19.31;50.91
67364;HTU21D;54250;45.572;38.086;2024-02-23T09:34:50;19.63;49.95
67364;HTU21D;54250;45.572;38.086;2024-02-23T09:37:16;19.71;49.74
67364;HTU21D;54250;45.572;38.086;2024-02-23T09:39:42;19.70;49.98
67364;HTU21D;54250;45.572;38.086;2024-02-23T09:42:10;19.27;49.51
67364;HTU21D;54250;45.572;38.086;2024-02-23T09:44:37;19.00;49.75
67364;HTU21D;54250;45.572;38.086;2024-02-23T09:47:03;19.13;50.34
67364;HTU21D;54250;45.572;38.086;2024-02-23T09:49:43;19.15;49.67
67364;HTU21D;54250;45.572;38.086;2024-02-23T09:52:12;18.86;49.47
67364;HTU21D;54250;45.572;38.086;2024-02-23T09:54:38;18.98;50.47
67364;HTU21D;54250;45.572;38.086;2024-02-23T09:57:08;19.43;49.94
67364;HTU21D;54250;45.572;38.086;2024-02-23T09:59:37;19.40;50.11
67364;HTU21D;54250;45.572;38.086;2024-02-23T10:02:08;19.51;49.93
67364;HTU21D;54250;45.572;38.086;2024-02-23T10:04:38;19.44;49.30
67364;HTU21D;54250;45.572;38.086;2024-02-23T10:07:06;19.46;49.98
67364;HTU21D;54250;45.572;38.086;2024-02-23T10:09:32;19.29;48.86
67364;HTU21D;54250;45.572;38.086;2024-02-23T10:11:58;18.98;49.78
67364;HTU21D;54250;45.572;38.086;2024-02-23T10:14:24;18.80;50.03
67364;HTU21D;54250;45.572;38.086;2024-02-23T10:16:50;18.53;49.68
67364;HTU21D;54250;45.572;38.086;2024-02-23T10:19:21;18.35;50.02
67364;HTU21D;54250;45.572;38.086;2024-02-23T10:21:48;18.27;50.39
67364;HTU21D;54250;45.572;38.086;2024-02-23T10:24:18;18.48;50.30
67364;HTU21D;54250;45.572;38.086;2024-02-23T10:26:44;18.61;50.53
67364;HTU21D;54250;45.572;38.086;2024-02-23T10:29:10;18.57;49.95
67364;HTU21D;54250;45.572;38.086;2024-02-23T10:31:37;18.40;50.47
67364;HTU21D;54250;45.572;38.086;2024-02-23T10:34:07;18.34;50.40
67364;HTU21D;54250;45.572;38.086;2024-02-23T10:36:41;18.13;50.60
67364;HTU21D;54250;45.572;38.086;2024-02-23T10:39:08;17.72;51.06
67364;HTU21D;54250;45.572;38.086;2024-02-23T10:41:36;17.43;52.07
67364;HTU21D;54250;45.572;38.086;2024-02-23T10:44:05;16.62;53.27
67364;HTU21D;54250;45.572;38.086;2024-02-23T10:46:32;16.14;54.41
67364;HTU21D;54250;45.572;38.086;2024-02-23T10:48:59;16.47;54.28
67364;HTU21D;54250;45.572;38.086;2024-02-23T10:51:25;16.91;53.46
67364;HTU21D;54250;45.572;38.086;2024-02-23T10:53:52;17.07;53.17
67364;HTU21D;54250;45.572;38.086;2024-02-23T10:56:18;17.23;52.76
67364;HTU21D;54250;45.572;38.086;2024-02-23T10:58:45;17.00;52.85
67364;HTU21D;54250;45.572;38.086;2024-02-23T11:01:13;16.44;53.07
67364;HTU21D;54250;45.572;38.086;2024-02-23T11:03:42;15.29;55.26
67364;HTU21D;54250;45.572;38.086;2024-02-23T11:06:10;14.34;57.57
67364;HTU21D;54250;45.572;38.086;2024-02-23T11:08:37;13.71;58.62
67364;HTU21D;54250;45.572;38.086;2024-02-23T11:11:10;13.23;59.56
67364;HTU21D;54250;45.572;38.086;2024-02-23T11:13:40;13.00;60.27
67364;HTU21D;54250;45.572;38.086;2024-02-23T11:16:07;12.82;60.71
67364;HTU21D;54250;45.572;38.086;2024-02-23T11:18:39;12.65;61.12
67364;HTU21D;54250;45.572;38.086;2024-02-23T11:21:05;12.56;61.43
67364;HTU21D;54250;45.572;38.086;2024-02-23T11:24:04;12.40;61.54
67364;HTU21D;54250;45.572;38.086;2024-02-23T11:26:31;12.31;61.82
67364;HTU21D;54250;45.572;38.086;2024-02-23T11:28:59;12.23;62.09
67364;HTU21D;54250;45.572;38.086;2024-02-23T11:31:34;12.17;62.15
67364;HTU21D;54250;45.572;38.086;2024-02-23T11:34:01;12.11;62.36
67364;HTU21D;54250;45.572;38.086;2024-02-23T11:36:32;12.08;62.37
67364;HTU21D;54250;45.572;38.086;2024-02-23T11:39:00;12.03;62.60
67364;HTU21D;54250;45.572;38.086;2024-02-23T11:41:27;12.02;62.76
67364;HTU21D;54250;45.572;38.086;2024-02-23T11:43:54;12.00;62.85
67364;HTU21D;54250;45.572;38.086;2024-02-23T11:46:26;11.94;62.94
67364;HTU21D;54250;45.572;38.086;2024-02-23T11:48:52;11.92;63.05
67364;HTU21D;54250;45.572;38.086;2024-02-23T11:51:22;11.92;63.14
67364;HTU21D;54250;45.572;38.086;2024-02-23T11:53:49;11.94;63.23
67364;HTU21D;54250;45.572;38.086;2024-02-23T11:56:15;11.89;63.26
67364;HTU21D;54250;45.572;38.086;2024-02-23T11:58:42;11.84;63.31
67364;HTU21D;54250;45.572;38.086;2024-02-23T12:01:08;11.84;63.52
67364;HTU21D;54250;45.572;38.086;2024-02-23T12:03:34;11.81;63.63
67364;HTU21D;54250;45.572;38.086;2024-02-23T12:06:01;11.90;63.80
67364;HTU21D;54250;45.572;38.086;2024-02-23T12:08:31;12.01;63.75
67364;HTU21D;54250;45.572;38.086;2024-02-23T12:11:07;11.98;63.63
67364;HTU21D;54250;45.572;38.086;2024-02-23T12:13:37;11.85;63.79
67364;HTU21D;54250;45.572;38.086;2024-02-23T12:16:03;11.82;63.96
67364;HTU21D;54250;45.572;38.086;2024-02-23T12:18:33;11.84;64.10
67364;HTU21D;54250;45.572;38.086;2024-02-23T12:21:04;11.88;64.20
67364;HTU21D;54250;45.572;38.086;2024-02-23T12:23:41;11.89;64.11
67364;HTU21D;54250;45.572;38.086;2024-02-23T12:26:08;11.87;64.21
67364;HTU21D;54250;45.572;38.086;2024-02-23T12:28:35;11.86;64.20
67364;HTU21D;54250;45.572;38.086;2024-02-23T12:31:01;11.86;64.34
67364;HTU21D;54250;45.572;38.086;2024-02-23T12:33:29;11.84;64.18
67364;HTU21D;54250;45.572;38.086;2024-02-23T12:35:55;11.79;64.24
67364;HTU21D;54250;45.572;38.086;2024-02-23T12:38:22;11.70;64.30
67364;HTU21D;54250;45.572;38.086;2024-02-23T12:40:48;11.67;64.44
67364;HTU21D;54250;45.572;38.086;2024-02-23T12:43:14;11.69;64.63
67364;HTU21D;54250;45.572;38.086;2024-02-23T12:45:40;11.69;64.49
67364;HTU21D;54250;45.572;38.086;2024-02-23T12:48:06;11.71;64.69
67364;HTU21D;54250;45.572;38.086;2024-02-23T12:50:33;11.73;64.57
67364;HTU21D;54250;45.572;38.086;2024-02-23T12:52:59;11.68;64.68
67364;HTU21D;54250;45.572;38.086;2024-02-23T12:55:26;11.71;64.76
67364;HTU21D;54250;45.572;38.086;2024-02-23T12:57:54;11.72;64.65
67364;HTU21D;54250;45.572;38.086;2024-02-23T13:00:20;11.73;64.79
67364;HTU21D;54250;45.572;38.086;2024-02-23T13:02:47;11.70;64.84
67364;HTU21D;54250;45.572;38.086;2024-02-23T13:05:14;11.68;64.81
67364;HTU21D;54250;45.572;38.086;2024-02-23T13:07:41;11.68;64.93
67364;HTU21D;54250;45.572;38.086;2024-02-23T13:10:08;11.71;64.69
67364;HTU21D;54250;45.572;38.086;2024-02-23T13:12:34;11.75;64.66
67364;HTU21D;54250;45.572;38.086;2024-02-23T13:15:00;11.75;64.72
67364;HTU21D;54250;45.572;38.086;2024-02-23T13:17:26;11.77;64.70
67364;HTU21D;54250;45.572;38.086;2024-02-23T13:19:53;11.73;64.60
67364;HTU21D;54250;45.572;38.086;2024-02-23T13:22:19;11.70;64.86
67364;HTU21D;54250;45.572;38.086;2024-02-23T13:24:45;11.70;64.87
67364;HTU21D;54250;45.572;38.086;2024-02-23T13:27:11;11.68;64.82
67364;HTU21D;54250;45.572;38.086;2024-02-23T13:29:37;11.62;64.85
67364;HTU21D;54250;45.572;38.086;2024-02-23T13:32:03;11.55;64.92
67364;HTU21D;54250;45.572;38.086;2024-02-23T13:34:30;11.48;65.12
67364;HTU21D;54250;45.572;38.086;2024-02-23T13:36:56;11.47;65.13
67364;HTU21D;54250;45.572;38.086;2024-02-23T13:39:22;11.48;65.20
67364;HTU21D;54250;45.572;38.086;2024-02-23T13:41:48;11.60;65.17
67364;HTU21D;54250;45.572;38.086;2024-02-23T13:44:14;11.69;65.10
67364;HTU21D;54250;45.572;38.086;2024-02-23T13:46:40;11.67;65.11
67364;HTU21D;54250;45.572;38.086;2024-02-23T13:49:07;11.59;65.24
67364;HTU21D;54250;45.572;38.086;2024-02-23T13:51:34;11.49;65.45
67364;HTU21D;54250;45.572;38.086;2024-02-23T13:54:01;11.44;65.69
67364;HTU21D;54250;45.572;38.086;2024-02-23T13:56:27;11.37;65.83
67364;HTU21D;54250;45.572;38.086;2024-02-23T13:58:53;11.32;66.02
67364;HTU21D;54250;45.572;38.086;2024-02-23T14:01:19;11.25;66.19
67364;HTU21D;54250;45.572;38.086;2024-02-23T14:03:45;11.20;66.36
67364;HTU21D;54250;45.572;38.086;2024-02-23T14:06:11;11.14;66.64
67364;HTU21D;54250;45.572;38.086;2024-02-23T14:08:37;11.05;67.04
67364;HTU21D;54250;45.572;38.086;2024-02-23T14:11:04;10.98;67.49
67364;HTU21D;54250;45.572;38.086;2024-02-23T14:13:33;10.93;67.76
67364;HTU21D;54250;45.572;38.086;2024-02-23T14:15:59;10.87;67.83
67364;HTU21D;54250;45.572;38.086;2024-02-23T14:18:26;10.81;68.07
67364;HTU21D;54250;45.572;38.086;2024-02-23T14:20:53;10.75;68.54
67364;HTU21D;54250;45.572;38.086;2024-02-23T14:23:18;10.68;68.80
67364;HTU21D;54250;45.572;38.086;2024-02-23T14:25:44;10.63;68.89
67364;HTU21D;54250;45.572;38.086;2024-02-23T14:28:10;10.53;69.27
67364;HTU21D;54250;45.572;38.086;2024-02-23T14:30:37;10.43;69.45
67364;HTU21D;54250;45.572;38.086;2024-02-23T14:33:06;10.30;69.71
67364;HTU21D;54250;45.572;38.086;2024-02-23T14:35:32;10.15;70.22
67364;HTU21D;54250;45.572;38.086;2024-02-23T14:37:58;9.93;70.66
67364;HTU21D;54250;45.572;38.086;2024-02-23T14:40:24;9.74;70.95
67364;HTU21D;54250;45.572;38.086;2024-02-23T14:42:50;9.54;71.32
67364;HTU21D;54250;45.572;38.086;2024-02-23T14:45:16;9.38;71.61
67364;HTU21D;54250;45.572;38.086;2024-02-23T14:47:42;9.23;71.84
67364;HTU21D;54250;45.572;38.086;2024-02-23T14:50:10;9.16;72.19
67364;HTU21D;54250;45.572;38.086;2024-02-23T14:52:36;9.05;72.35
67364;HTU21D;54250;45.572;38.086;2024-02-23T14:55:02;8.91;72.71
67364;HTU21D;54250;45.572;38.086;2024-02-23T14:57:29;8.79;73.12
67364;HTU21D;54250;45.572;38.086;2024-02-23T14:59:55;8.66;72.98
67364;HTU21D;54250;45.572;38.086;2024-02-23T15:02:23;8.53;73.41